< < Back
Terminal Aerodrome Forecast


Current Version              Previous Versions:   1  2  3  4  5  6  7  8  9  

Terminal Aerodrome Forecast

588
FTUS44 KMRX 291125
TAFCHA
TAF
KCHA 291125Z 2912/3012 34010KT P6SM SCT060
     FM300000 36005KT P6SM SCT080=



Latest METAR

809
SAUS80 KWBC 300500 RRB
MTRCHA
METAR KCHA 300453Z AUTO 31003KT 10SM CLR 18/13 A3009 RMK AO2 SLP183
T01780128 403170178


USA.gov is the U.S. government's official web portal to all federal, state and local government web resources and services.